createdAt,value
2017-09-24T00:00:01.255Z,16.33
2017-09-24T00:00:27.384Z,16.39
2017-09-24T00:00:53.529Z,16.31
2017-09-24T00:01:19.648Z,16.35
2017-09-24T00:01:45.775Z,16.38
2017-09-24T00:02:11.894Z,16.28
2017-09-24T00:02:38.017Z,16.31
2017-09-24T00:03:04.144Z,16.28
2017-09-24T00:03:30.260Z,16.29
2017-09-24T00:03:56.389Z,16.28
2017-09-24T00:04:22.514Z,16.36
2017-09-24T00:04:48.636Z,16.26
2017-09-24T00:05:14.754Z,16.28
2017-09-24T00:05:40.877Z,16.28
2017-09-24T00:06:07.005Z,16.29
2017-09-24T00:06:33.123Z,16.21
2017-09-24T00:06:59.246Z,16.29
2017-09-24T00:07:25.375Z,16.28
2017-09-24T00:07:51.492Z,16.42
2017-09-24T00:08:17.640Z,16.31
2017-09-24T00:08:43.762Z,16.33
2017-09-24T00:09:09.889Z,16.39
2017-09-24T00:09:36.008Z,16.33
2017-09-24T00:10:02.135Z,16.32
2017-09-24T00:10:28.260Z,16.39
2017-09-24T00:10:54.382Z,16.28
2017-09-24T00:11:20.520Z,16.29
2017-09-24T00:11:46.647Z,16.29
2017-09-24T00:12:12.774Z,16.26
2017-09-24T00:12:38.893Z,16.29
2017-09-24T00:13:05.014Z,16.32
2017-09-24T00:13:31.137Z,16.26
2017-09-24T00:13:57.265Z,16.28
2017-09-24T00:14:23.384Z,16.28
2017-09-24T00:14:49.505Z,16.23
2017-09-24T00:15:15.629Z,16.28
2017-09-24T00:15:41.755Z,16.26
2017-09-24T00:16:07.874Z,16.28
2017-09-24T00:16:33.995Z,16.33
2017-09-24T00:17:00.123Z,16.29
2017-09-24T00:17:26.243Z,16.28
2017-09-24T00:17:52.392Z,16.26
2017-09-24T00:18:18.510Z,16.28
2017-09-24T00:18:44.634Z,16.38
2017-09-24T00:19:10.755Z,16.32
2017-09-24T00:19:36.879Z,16.38
2017-09-24T00:20:02.999Z,16.35
2017-09-24T00:20:29.127Z,16.24
2017-09-24T00:20:55.251Z,16.35
2017-09-24T00:21:21.370Z,16.28
2017-09-24T00:21:47.495Z,16.28
2017-09-24T00:22:13.624Z,16.31
2017-09-24T00:22:39.745Z,16.29
2017-09-24T00:23:05.871Z,16.29
2017-09-24T00:23:32.002Z,16.28
2017-09-24T00:23:58.117Z,16.29
2017-09-24T00:24:24.236Z,16.31
2017-09-24T00:24:50.363Z,16.32
2017-09-24T00:25:16.486Z,16.33
2017-09-24T00:25:42.602Z,16.35
2017-09-24T00:26:08.723Z,16.32
2017-09-24T00:26:34.844Z,16.24
2017-09-24T00:27:00.963Z,16.35
2017-09-24T00:27:27.086Z,16.33
2017-09-24T00:27:53.202Z,16.24
2017-09-24T00:28:19.329Z,16.29
2017-09-24T00:28:45.456Z,16.26
2017-09-24T00:29:11.575Z,16.33
2017-09-24T00:29:37.725Z,16.28
2017-09-24T00:30:03.822Z,16.33
2017-09-24T00:30:29.947Z,16.32
2017-09-24T00:30:56.069Z,16.31
2017-09-24T00:31:22.188Z,16.28
2017-09-24T00:31:48.314Z,16.29
2017-09-24T00:32:14.438Z,16.29
2017-09-24T00:32:40.557Z,16.26
2017-09-24T00:33:06.680Z,16.31
2017-09-24T00:33:32.804Z,16.24
2017-09-24T00:33:58.922Z,16.24
2017-09-24T00:34:25.049Z,16.23
2017-09-24T00:34:51.173Z,16.24
2017-09-24T00:35:17.291Z,16.31
2017-09-24T00:35:43.421Z,16.2
2017-09-24T00:36:09.544Z,16.15
2017-09-24T00:36:35.660Z,16.13
2017-09-24T00:37:01.787Z,16.16
2017-09-24T00:37:27.907Z,16.15
2017-09-24T00:37:54.035Z,16.17
2017-09-24T00:38:20.154Z,16.1
2017-09-24T00:38:46.283Z,16.12
2017-09-24T00:39:12.399Z,16.15
2017-09-24T00:39:38.523Z,16.12
2017-09-24T00:40:04.651Z,16.13
2017-09-24T00:40:30.770Z,16.1
2017-09-24T00:40:56.894Z,16.12
2017-09-24T00:41:23.018Z,16.1
2017-09-24T00:41:49.136Z,16.15
2017-09-24T00:42:15.268Z,16.08
2017-09-24T00:42:41.389Z,16.09
2017-09-24T00:43:07.511Z,16.09
2017-09-24T00:43:33.635Z,16.13
2017-09-24T00:43:59.780Z,16.09
2017-09-24T00:44:25.901Z,16.08
2017-09-24T00:44:52.020Z,16.13
2017-09-24T00:45:18.145Z,16.09
2017-09-24T00:45:44.288Z,16.09
2017-09-24T00:46:10.412Z,16.12
2017-09-24T00:46:36.527Z,16.16
2017-09-24T00:47:02.650Z,16.08
2017-09-24T00:47:28.774Z,16.15
2017-09-24T00:47:54.900Z,16.08
2017-09-24T00:48:21.022Z,16.13
2017-09-24T00:48:47.140Z,16.08
2017-09-24T00:49:13.268Z,16.12
2017-09-24T00:49:39.391Z,16.13
2017-09-24T00:50:05.510Z,16.13
2017-09-24T00:50:31.633Z,16.09
2017-09-24T00:50:57.756Z,16.09
2017-09-24T00:51:23.878Z,16.12
2017-09-24T00:51:49.995Z,16.13
2017-09-24T00:52:16.118Z,16.1
2017-09-24T00:52:42.250Z,16.09
2017-09-24T00:53:08.371Z,16.15
2017-09-24T00:53:34.496Z,16.16
2017-09-24T00:54:00.615Z,16.15
2017-09-24T00:54:26.740Z,16.12
2017-09-24T00:54:52.857Z,16.2
2017-09-24T00:55:18.985Z,16.16
2017-09-24T00:55:45.107Z,16.13
2017-09-24T00:56:11.233Z,16.23
2017-09-24T00:56:37.358Z,16.16
2017-09-24T00:57:04.086Z,16.15
2017-09-24T00:57:30.212Z,16.17
2017-09-24T00:57:56.333Z,16.15
2017-09-24T00:58:22.450Z,16.17
2017-09-24T00:58:48.577Z,16.12
2017-09-24T00:59:14.717Z,16.17
2017-09-24T00:59:40.843Z,16.21
2017-09-24T01:00:06.971Z,16.16
2017-09-24T01:00:33.089Z,16.21
2017-09-24T01:00:59.205Z,16.2
2017-09-24T01:01:25.331Z,16.24
2017-09-24T01:01:51.451Z,16.15
2017-09-24T01:02:17.579Z,16.16
2017-09-24T01:02:43.696Z,16.16
2017-09-24T01:03:09.824Z,16.23
2017-09-24T01:03:35.941Z,16.17
2017-09-24T01:04:02.064Z,16.16
2017-09-24T01:04:28.188Z,16.1
2017-09-24T01:04:54.313Z,16.17
2017-09-24T01:05:20.433Z,16.28
2017-09-24T01:05:46.561Z,16.28
2017-09-24T01:06:12.685Z,16.23
2017-09-24T01:06:38.805Z,16.28
2017-09-24T01:07:04.936Z,16.32
2017-09-24T01:07:31.056Z,16.32
2017-09-24T01:07:57.175Z,16.31
2017-09-24T01:08:23.297Z,16.28
2017-09-24T01:08:49.429Z,16.33
2017-09-24T01:09:15.549Z,16.31
2017-09-24T01:09:41.676Z,16.28
2017-09-24T01:10:07.798Z,16.24
2017-09-24T01:10:33.918Z,16.31
2017-09-24T01:11:00.041Z,16.28
2017-09-24T01:11:26.159Z,16.29
2017-09-24T01:11:52.283Z,16.28
2017-09-24T01:12:18.407Z,16.31
2017-09-24T01:12:44.539Z,16.32
2017-09-24T01:13:10.679Z,16.26
2017-09-24T01:13:36.824Z,16.26
2017-09-24T01:14:02.948Z,16.32
2017-09-24T01:14:29.095Z,16.32
2017-09-24T01:14:55.214Z,16.28
2017-09-24T01:15:21.334Z,16.31
2017-09-24T01:15:47.465Z,16.29
2017-09-24T01:16:13.584Z,16.26
2017-09-24T01:16:39.715Z,16.29
2017-09-24T01:17:05.837Z,16.29
2017-09-24T01:17:31.952Z,16.32
2017-09-24T01:17:58.076Z,16.24
2017-09-24T01:18:24.198Z,16.26
2017-09-24T01:18:50.323Z,16.32
2017-09-24T01:19:16.445Z,16.33
2017-09-24T01:19:42.571Z,16.32
2017-09-24T01:20:08.686Z,16.21
2017-09-24T01:20:34.814Z,16.28
2017-09-24T01:21:00.938Z,16.28
2017-09-24T01:21:27.060Z,16.28
2017-09-24T01:21:53.185Z,16.29
2017-09-24T01:22:19.306Z,16.26
2017-09-24T01:22:45.424Z,16.31
2017-09-24T01:23:11.548Z,16.26
2017-09-24T01:23:37.676Z,16.26
2017-09-24T01:24:03.795Z,16.26
2017-09-24T01:24:29.914Z,16.31
2017-09-24T01:24:56.039Z,16.26
2017-09-24T01:25:22.168Z,16.32
2017-09-24T01:25:48.284Z,16.36
2017-09-24T01:26:14.407Z,16.36
2017-09-24T01:26:40.535Z,16.31
2017-09-24T01:27:06.662Z,16.28
2017-09-24T01:27:32.787Z,16.29
2017-09-24T01:27:58.925Z,16.23
2017-09-24T01:28:25.050Z,16.24
2017-09-24T01:28:51.172Z,16.26
2017-09-24T01:29:17.298Z,16.24
2017-09-24T01:29:43.422Z,16.29
2017-09-24T01:30:09.540Z,16.26
2017-09-24T01:30:35.669Z,16.26
2017-09-24T01:31:01.789Z,16.29
2017-09-24T01:31:27.908Z,16.36
2017-09-24T01:31:54.032Z,16.26
2017-09-24T01:32:20.153Z,16.29
2017-09-24T01:32:46.275Z,16.28
2017-09-24T01:33:12.392Z,16.29
2017-09-24T01:33:38.526Z,16.29
2017-09-24T01:34:04.668Z,16.31
2017-09-24T01:34:30.796Z,16.31
2017-09-24T01:34:56.911Z,16.35
2017-09-24T01:35:23.038Z,16.36
2017-09-24T01:35:49.165Z,16.28
2017-09-24T01:36:15.285Z,16.28
2017-09-24T01:36:41.400Z,16.39
2017-09-24T01:37:07.522Z,16.35
2017-09-24T01:37:33.649Z,16.36
2017-09-24T01:37:59.777Z,16.39
2017-09-24T01:38:25.894Z,16.41
2017-09-24T01:38:52.021Z,16.35
2017-09-24T01:39:18.142Z,16.36
2017-09-24T01:39:44.267Z,16.38
2017-09-24T01:40:10.386Z,16.38
2017-09-24T01:40:36.518Z,16.29
2017-09-24T01:41:02.631Z,16.39
2017-09-24T01:41:28.760Z,16.39
2017-09-24T01:41:54.878Z,16.39
2017-09-24T01:42:21.000Z,16.36
2017-09-24T01:42:47.129Z,16.36
2017-09-24T01:43:13.248Z,16.38
2017-09-24T01:43:39.368Z,16.36
2017-09-24T01:44:05.491Z,16.33
2017-09-24T01:44:31.617Z,16.35
2017-09-24T01:44:57.735Z,16.31
2017-09-24T01:45:23.857Z,16.28
2017-09-24T01:45:49.983Z,16.26
2017-09-24T01:46:16.110Z,16.38
2017-09-24T01:46:42.230Z,16.31
2017-09-24T01:47:08.348Z,16.31
2017-09-24T01:47:34.476Z,16.32
2017-09-24T01:48:00.600Z,16.32
2017-09-24T01:48:26.720Z,16.29
2017-09-24T01:48:52.850Z,16.31
2017-09-24T01:49:18.968Z,16.28
2017-09-24T01:49:45.088Z,16.32
2017-09-24T01:50:11.212Z,16.43
2017-09-24T01:50:37.334Z,16.38
2017-09-24T01:51:03.463Z,16.32
2017-09-24T01:51:29.585Z,16.39
2017-09-24T01:51:55.709Z,16.38
2017-09-24T01:52:21.833Z,16.31
2017-09-24T01:52:47.957Z,16.36
2017-09-24T01:53:14.081Z,16.35
2017-09-24T01:53:40.205Z,16.31
2017-09-24T01:54:06.349Z,16.23
2017-09-24T01:54:32.461Z,16.42
2017-09-24T01:54:58.587Z,16.28
2017-09-24T01:55:24.703Z,16.26
2017-09-24T01:55:50.827Z,16.24
2017-09-24T01:56:16.949Z,16.26
2017-09-24T01:56:43.076Z,16.23
2017-09-24T01:57:09.200Z,16.29
2017-09-24T01:57:35.315Z,16.28
2017-09-24T01:58:01.444Z,16.33
2017-09-24T01:58:27.567Z,16.28
2017-09-24T01:58:53.696Z,16.26
2017-09-24T01:59:19.815Z,16.23
2017-09-24T01:59:45.940Z,16.33
2017-09-24T02:00:12.062Z,16.28
2017-09-24T02:00:38.204Z,16.35
2017-09-24T02:01:04.330Z,16.33
2017-09-24T02:01:30.446Z,16.26
2017-09-24T02:01:56.575Z,16.32
2017-09-24T02:02:22.690Z,16.31
2017-09-24T02:02:48.817Z,16.26
2017-09-24T02:03:14.935Z,16.24
2017-09-24T02:03:41.055Z,16.26
2017-09-24T02:04:07.178Z,16.28
2017-09-24T02:04:33.319Z,16.26
2017-09-24T02:04:59.444Z,16.29
2017-09-24T02:05:25.567Z,16.24
2017-09-24T02:05:51.684Z,16.26
2017-09-24T02:06:17.812Z,16.21
2017-09-24T02:06:43.936Z,16.2
2017-09-24T02:07:10.053Z,16.17
2017-09-24T02:07:36.177Z,16.21
2017-09-24T02:08:02.327Z,16.17
2017-09-24T02:08:28.442Z,16.15
2017-09-24T02:08:54.571Z,16.16
2017-09-24T02:09:20.688Z,16.21
2017-09-24T02:09:46.810Z,16.2
2017-09-24T02:10:12.938Z,16.23
2017-09-24T02:10:39.063Z,16.2
2017-09-24T02:11:05.180Z,16.15
2017-09-24T02:11:31.299Z,16.15
2017-09-24T02:11:57.423Z,16.17
2017-09-24T02:12:23.546Z,16.23
2017-09-24T02:12:49.692Z,16.2
2017-09-24T02:13:15.809Z,16.13
2017-09-24T02:13:41.937Z,16.16
2017-09-24T02:14:08.060Z,16.17
2017-09-24T02:14:34.181Z,16.21
2017-09-24T02:15:00.306Z,16.17
2017-09-24T02:15:26.422Z,16.2
2017-09-24T02:15:52.553Z,16.16
2017-09-24T02:16:18.672Z,16.23
2017-09-24T02:16:44.798Z,16.15
2017-09-24T02:17:10.948Z,16.16
2017-09-24T02:17:37.063Z,16.15
2017-09-24T02:18:03.195Z,16.16
2017-09-24T02:18:29.317Z,16.16
2017-09-24T02:18:55.448Z,16.15
2017-09-24T02:19:21.558Z,16.13
2017-09-24T02:19:47.679Z,16.16
2017-09-24T02:20:13.803Z,16.1
2017-09-24T02:20:39.925Z,16.26
2017-09-24T02:21:06.051Z,16.26
2017-09-24T02:21:32.174Z,16.16
2017-09-24T02:21:58.301Z,16.16
2017-09-24T02:22:24.418Z,16.16
2017-09-24T02:22:50.548Z,16.16
2017-09-24T02:23:16.666Z,16.1
2017-09-24T02:23:42.799Z,16.1
2017-09-24T02:24:08.920Z,16.13
2017-09-24T02:24:35.044Z,16.09
2017-09-24T02:25:01.162Z,16
2017-09-24T02:25:27.283Z,16.1
2017-09-24T02:25:53.408Z,16.1
2017-09-24T02:26:19.527Z,16.08
2017-09-24T02:26:45.654Z,16
2017-09-24T02:27:11.771Z,16.01
2017-09-24T02:27:37.895Z,16.08
2017-09-24T02:28:04.029Z,16.04
2017-09-24T02:28:30.140Z,15.92
2017-09-24T02:28:56.261Z,15.98
2017-09-24T02:29:22.390Z,16.05
2017-09-24T02:29:48.513Z,16.12
2017-09-24T02:30:14.632Z,15.98
2017-09-24T02:30:40.752Z,16
2017-09-24T02:31:06.878Z,16.01
2017-09-24T02:31:32.996Z,16.1
2017-09-24T02:31:59.120Z,16.02
2017-09-24T02:32:25.248Z,16.08
2017-09-24T02:32:51.368Z,16.12
2017-09-24T02:33:17.498Z,16.04
2017-09-24T02:33:43.613Z,16.09
2017-09-24T02:34:09.737Z,16.08
2017-09-24T02:34:35.876Z,16.05
2017-09-24T02:35:01.998Z,16.08
2017-09-24T02:35:28.120Z,16.09
2017-09-24T02:35:54.247Z,16.12
2017-09-24T02:36:20.371Z,16.04
2017-09-24T02:36:46.500Z,16.01
2017-09-24T02:37:12.622Z,15.97
2017-09-24T02:37:38.748Z,16
2017-09-24T02:38:04.861Z,16.05
2017-09-24T02:38:30.986Z,16.1
2017-09-24T02:38:57.107Z,15.98
2017-09-24T02:39:23.242Z,16.08
2017-09-24T02:39:49.367Z,16
2017-09-24T02:40:15.501Z,16
2017-09-24T02:40:41.611Z,15.98
2017-09-24T02:41:07.728Z,15.97
2017-09-24T02:41:33.855Z,16.02
2017-09-24T02:41:59.983Z,15.95
2017-09-24T02:42:26.108Z,16.01
2017-09-24T02:42:52.230Z,16.02
2017-09-24T02:43:18.356Z,16.01
2017-09-24T02:43:44.474Z,16
2017-09-24T02:44:10.610Z,16.04
2017-09-24T02:44:36.730Z,15.97
2017-09-24T02:45:02.853Z,15.98
2017-09-24T02:45:28.977Z,16.01
2017-09-24T02:45:55.126Z,16
2017-09-24T02:46:21.269Z,15.91
2017-09-24T02:46:47.389Z,15.97
2017-09-24T02:47:13.516Z,15.95
2017-09-24T02:47:39.634Z,16
2017-09-24T02:48:05.778Z,15.92
2017-09-24T02:48:31.902Z,15.97
2017-09-24T02:48:58.023Z,15.97
2017-09-24T02:49:24.150Z,15.98
2017-09-24T02:49:50.270Z,16
2017-09-24T02:50:16.396Z,16.01
2017-09-24T02:50:42.514Z,15.88
2017-09-24T02:51:08.661Z,15.86
2017-09-24T02:51:34.786Z,15.82
2017-09-24T02:52:00.903Z,15.86
2017-09-24T02:52:27.030Z,15.86
2017-09-24T02:52:53.149Z,15.94
2017-09-24T02:53:19.269Z,15.84
2017-09-24T02:53:45.390Z,15.86
2017-09-24T02:54:11.518Z,15.86
2017-09-24T02:54:37.633Z,15.84
2017-09-24T02:55:03.763Z,15.97
2017-09-24T02:55:29.886Z,15.95
2017-09-24T02:55:56.007Z,15.94
2017-09-24T02:56:22.128Z,15.88
2017-09-24T02:56:48.243Z,15.9
2017-09-24T02:57:14.370Z,15.9
2017-09-24T02:57:40.490Z,15.9
2017-09-24T02:58:06.607Z,15.8
2017-09-24T02:58:32.728Z,15.88
2017-09-24T02:58:58.850Z,15.79
2017-09-24T02:59:24.979Z,15.88
2017-09-24T02:59:51.106Z,15.83
2017-09-24T03:00:17.226Z,15.88
2017-09-24T03:00:43.352Z,15.9
2017-09-24T03:01:09.476Z,15.9
2017-09-24T03:01:35.593Z,15.88
2017-09-24T03:02:01.728Z,15.84
2017-09-24T03:02:27.854Z,15.82
2017-09-24T03:02:53.969Z,15.86
2017-09-24T03:03:20.111Z,15.84
2017-09-24T03:03:46.227Z,15.88
2017-09-24T03:04:12.353Z,15.86
2017-09-24T03:04:38.472Z,15.75
2017-09-24T03:05:04.597Z,15.82
2017-09-24T03:05:30.715Z,15.8
2017-09-24T03:05:56.836Z,15.82
2017-09-24T03:06:22.960Z,15.91
2017-09-24T03:06:49.083Z,15.91
2017-09-24T03:07:15.211Z,15.88
2017-09-24T03:07:41.331Z,15.86
2017-09-24T03:08:07.463Z,15.88
2017-09-24T03:08:33.581Z,15.9
2017-09-24T03:08:59.703Z,15.88
2017-09-24T03:09:25.825Z,15.82
2017-09-24T03:09:51.953Z,15.82
2017-09-24T03:10:18.077Z,15.86
2017-09-24T03:10:44.202Z,15.86
2017-09-24T03:11:10.322Z,15.9
2017-09-24T03:11:36.445Z,15.86
2017-09-24T03:12:02.561Z,15.82
2017-09-24T03:12:28.691Z,15.88
2017-09-24T03:12:54.812Z,15.9
2017-09-24T03:13:20.930Z,15.9
2017-09-24T03:13:47.052Z,15.92
2017-09-24T03:14:13.196Z,15.84
2017-09-24T03:14:39.322Z,15.91
2017-09-24T03:15:05.468Z,15.9
2017-09-24T03:15:31.589Z,15.83
2017-09-24T03:15:57.708Z,15.88
2017-09-24T03:16:23.838Z,15.88
2017-09-24T03:16:49.957Z,15.8
2017-09-24T03:17:16.077Z,15.92
2017-09-24T03:17:42.198Z,15.9
2017-09-24T03:18:08.330Z,15.94
2017-09-24T03:18:34.454Z,15.82
2017-09-24T03:19:00.574Z,15.84
2017-09-24T03:19:26.692Z,15.86
2017-09-24T03:19:52.811Z,15.86
2017-09-24T03:20:18.932Z,15.92
2017-09-24T03:20:45.059Z,15.91
2017-09-24T03:21:11.177Z,15.82
2017-09-24T03:21:37.304Z,15.83
2017-09-24T03:22:03.429Z,15.84
2017-09-24T03:22:29.546Z,15.86
2017-09-24T03:22:55.674Z,15.94
2017-09-24T03:23:21.793Z,15.95
2017-09-24T03:23:47.920Z,15.95
2017-09-24T03:24:14.040Z,15.97
2017-09-24T03:24:40.156Z,15.95
2017-09-24T03:25:06.283Z,15.86
2017-09-24T03:25:32.403Z,15.84
2017-09-24T03:25:58.530Z,15.88
2017-09-24T03:26:24.653Z,15.9
2017-09-24T03:26:50.773Z,15.9
2017-09-24T03:27:16.893Z,15.83
2017-09-24T03:27:43.018Z,15.84
2017-09-24T03:28:09.146Z,15.84
2017-09-24T03:28:35.266Z,15.86
2017-09-24T03:29:01.391Z,15.91
2017-09-24T03:29:27.544Z,15.98
2017-09-24T03:29:53.658Z,15.95
2017-09-24T03:30:19.778Z,15.98
2017-09-24T03:30:45.896Z,16.02
2017-09-24T03:31:12.018Z,15.92
2017-09-24T03:31:38.141Z,16
2017-09-24T03:32:04.274Z,15.97
2017-09-24T03:32:30.399Z,16
2017-09-24T03:32:56.514Z,16.01
2017-09-24T03:33:22.651Z,16.01
2017-09-24T03:33:48.776Z,16
2017-09-24T03:34:14.894Z,16
2017-09-24T03:34:41.025Z,15.97
2017-09-24T03:35:07.141Z,15.97
2017-09-24T03:35:33.268Z,15.92
2017-09-24T03:35:59.385Z,16
2017-09-24T03:36:25.510Z,15.92
2017-09-24T03:36:51.637Z,15.97
2017-09-24T03:37:17.762Z,15.98
2017-09-24T03:37:43.885Z,15.97
2017-09-24T03:38:10.010Z,16
2017-09-24T03:38:36.129Z,16.01
2017-09-24T03:39:02.253Z,16
2017-09-24T03:39:28.374Z,16.05
2017-09-24T03:39:54.490Z,15.97
2017-09-24T03:40:20.615Z,16
2017-09-24T03:40:46.736Z,15.97
2017-09-24T03:41:12.857Z,15.97
2017-09-24T03:41:38.979Z,15.98
2017-09-24T03:42:05.109Z,16.02
2017-09-24T03:42:31.227Z,15.98
2017-09-24T03:42:57.353Z,15.98
2017-09-24T03:43:23.469Z,16.02
2017-09-24T03:43:49.596Z,15.92
2017-09-24T03:44:15.719Z,15.97
2017-09-24T03:44:41.858Z,16.02
2017-09-24T03:45:07.984Z,15.92
2017-09-24T03:45:34.109Z,16.01
2017-09-24T03:46:00.229Z,15.9
2017-09-24T03:46:26.349Z,15.97
2017-09-24T03:46:52.475Z,16
2017-09-24T03:47:18.591Z,16.01
2017-09-24T03:47:44.716Z,15.97
2017-09-24T03:48:10.843Z,16.05
2017-09-24T03:48:36.961Z,16.05
2017-09-24T03:49:03.084Z,16.04
2017-09-24T03:49:29.211Z,16.08
2017-09-24T03:49:55.329Z,16.02
2017-09-24T03:50:21.455Z,16.01
2017-09-24T03:50:47.582Z,16.01
2017-09-24T03:51:13.700Z,16.09
2017-09-24T03:51:39.820Z,15.9
2017-09-24T03:52:05.945Z,15.98
2017-09-24T03:52:32.066Z,15.94
2017-09-24T03:52:58.194Z,15.95
2017-09-24T03:53:24.316Z,15.98
2017-09-24T03:53:50.441Z,16
2017-09-24T03:54:16.557Z,15.98
2017-09-24T03:54:42.690Z,16
2017-09-24T03:55:08.806Z,16
2017-09-24T03:55:34.953Z,15.98
2017-09-24T03:56:01.073Z,15.97
2017-09-24T03:56:27.203Z,16
2017-09-24T03:56:53.331Z,16.02
2017-09-24T03:57:19.450Z,16
2017-09-24T03:57:45.567Z,16.02
2017-09-24T03:58:11.692Z,15.94
2017-09-24T03:58:37.808Z,16.04
2017-09-24T03:59:03.927Z,16.05
2017-09-24T03:59:30.054Z,16.04
2017-09-24T03:59:56.188Z,16.08
2017-09-24T04:00:22.309Z,16.04
2017-09-24T04:00:48.454Z,16.05
2017-09-24T04:01:14.593Z,15.95
2017-09-24T04:01:40.720Z,16
2017-09-24T04:02:06.847Z,16
2017-09-24T04:02:32.967Z,16.08
2017-09-24T04:02:59.094Z,15.94
2017-09-24T04:03:25.208Z,16
2017-09-24T04:03:51.331Z,16.01
2017-09-24T04:04:17.448Z,16.05
2017-09-24T04:04:43.574Z,16.04
2017-09-24T04:05:09.694Z,15.95
2017-09-24T04:05:35.814Z,16.04
2017-09-24T04:06:01.938Z,16.04
2017-09-24T04:06:28.060Z,16.02
2017-09-24T04:06:54.188Z,15.9
2017-09-24T04:07:20.313Z,16.02
2017-09-24T04:07:46.431Z,15.94
2017-09-24T04:08:12.569Z,16.1
2017-09-24T04:08:38.689Z,16.05
2017-09-24T04:09:04.806Z,16.01
2017-09-24T04:09:30.954Z,16.04
2017-09-24T04:09:57.079Z,16
2017-09-24T04:10:23.197Z,16.05
2017-09-24T04:10:49.321Z,16.08
2017-09-24T04:11:15.449Z,16.02
2017-09-24T04:11:41.569Z,16.04
2017-09-24T04:12:07.714Z,15.98
2017-09-24T04:12:33.834Z,16.04
2017-09-24T04:12:59.960Z,16.04
2017-09-24T04:13:26.086Z,16.01
2017-09-24T04:13:52.203Z,15.98
2017-09-24T04:14:18.323Z,16.08
2017-09-24T04:14:44.450Z,16.04
2017-09-24T04:15:10.577Z,16.04
2017-09-24T04:15:36.720Z,16.04
2017-09-24T04:16:02.843Z,16.05
2017-09-24T04:16:28.966Z,15.98
2017-09-24T04:16:55.087Z,16.02
2017-09-24T04:17:21.210Z,16.04
2017-09-24T04:17:47.331Z,16.01
2017-09-24T04:18:13.449Z,16.1
2017-09-24T04:18:39.570Z,16.05
2017-09-24T04:19:05.698Z,15.9
2017-09-24T04:19:31.814Z,16.01
2017-09-24T04:19:57.941Z,15.95
2017-09-24T04:20:24.058Z,16.08
2017-09-24T04:20:50.185Z,16.1
2017-09-24T04:21:16.313Z,16.01
2017-09-24T04:21:42.439Z,16
2017-09-24T04:22:08.563Z,16.04
2017-09-24T04:22:34.679Z,16.05
2017-09-24T04:23:00.801Z,16.08
2017-09-24T04:23:26.927Z,16
2017-09-24T04:23:53.056Z,16.09
2017-09-24T04:24:19.167Z,16.02
2017-09-24T04:24:45.297Z,16.04
2017-09-24T04:25:11.416Z,16.02
2017-09-24T04:25:37.546Z,15.95
2017-09-24T04:26:03.661Z,16.04
2017-09-24T04:26:29.784Z,15.98
2017-09-24T04:26:55.906Z,16.08
2017-09-24T04:27:22.057Z,16.04
2017-09-24T04:27:48.176Z,16
2017-09-24T04:28:14.295Z,15.97
2017-09-24T04:28:40.422Z,16.02
2017-09-24T04:29:06.545Z,16.02
2017-09-24T04:29:32.663Z,16.09
2017-09-24T04:29:58.788Z,15.97
2017-09-24T04:30:24.916Z,15.98
2017-09-24T04:30:51.035Z,16.04
2017-09-24T04:31:17.159Z,16.02
2017-09-24T04:31:43.276Z,15.97
2017-09-24T04:32:09.405Z,16.02
2017-09-24T04:32:35.528Z,16.01
2017-09-24T04:33:01.647Z,16.02
2017-09-24T04:33:27.795Z,16.04
2017-09-24T04:33:53.917Z,16.01
2017-09-24T04:34:20.031Z,16
2017-09-24T04:34:46.157Z,16.09
2017-09-24T04:35:12.299Z,16.02
2017-09-24T04:35:38.425Z,16.01
2017-09-24T04:36:04.558Z,16.04
2017-09-24T04:36:30.695Z,15.98
2017-09-24T04:36:56.818Z,15.97
2017-09-24T04:37:22.936Z,16.01
2017-09-24T04:37:49.064Z,16.15
2017-09-24T04:38:15.188Z,16.02
2017-09-24T04:38:41.310Z,16.09
2017-09-24T04:39:07.427Z,16.09
2017-09-24T04:39:33.551Z,16.05
2017-09-24T04:39:59.673Z,16.02
2017-09-24T04:40:25.792Z,16.08
2017-09-24T04:40:51.916Z,16
2017-09-24T04:41:18.036Z,16
2017-09-24T04:41:44.177Z,16.02
2017-09-24T04:42:10.307Z,16.08
2017-09-24T04:42:36.451Z,16.02
2017-09-24T04:43:02.570Z,16.01
2017-09-24T04:43:28.691Z,16.09
2017-09-24T04:43:54.820Z,16
2017-09-24T04:44:20.938Z,16.04
2017-09-24T04:44:47.060Z,16.02
2017-09-24T04:45:13.207Z,15.97
2017-09-24T04:45:39.320Z,16.01
2017-09-24T04:46:05.448Z,16.09
2017-09-24T04:46:31.575Z,16.05
2017-09-24T04:46:57.697Z,16.04
2017-09-24T04:47:23.823Z,15.97
2017-09-24T04:47:49.941Z,15.97
2017-09-24T04:48:16.063Z,16.01
2017-09-24T04:48:42.190Z,16.01
2017-09-24T04:49:08.314Z,15.94
2017-09-24T04:49:34.432Z,15.88
2017-09-24T04:50:00.551Z,15.84
2017-09-24T04:50:26.675Z,15.79
2017-09-24T04:50:52.797Z,15.84
2017-09-24T04:51:18.926Z,15.84
2017-09-24T04:51:45.047Z,15.84
2017-09-24T04:52:11.170Z,15.86
2017-09-24T04:52:37.289Z,15.88
2017-09-24T04:53:03.415Z,15.86
2017-09-24T04:53:29.534Z,15.88
2017-09-24T04:53:55.658Z,15.82
2017-09-24T04:54:21.785Z,15.86
2017-09-24T04:54:47.904Z,15.82
2017-09-24T04:55:14.023Z,15.79
2017-09-24T04:55:40.151Z,15.86
2017-09-24T04:56:06.270Z,15.88
2017-09-24T04:56:32.399Z,15.83
2017-09-24T04:56:58.523Z,15.82
2017-09-24T04:57:24.639Z,15.82
2017-09-24T04:57:50.767Z,15.88
2017-09-24T04:58:16.888Z,15.86
2017-09-24T04:58:43.013Z,15.94
2017-09-24T04:59:09.132Z,15.86
2017-09-24T04:59:35.261Z,15.77
2017-09-24T05:00:01.376Z,15.84
2017-09-24T05:00:27.506Z,15.88
2017-09-24T05:00:53.649Z,15.88
2017-09-24T05:01:19.775Z,15.9
2017-09-24T05:01:45.911Z,15.86
2017-09-24T05:02:12.030Z,15.86
2017-09-24T05:02:38.159Z,15.82
2017-09-24T05:03:04.285Z,15.84
2017-09-24T05:03:30.405Z,15.84
2017-09-24T05:03:56.525Z,15.84
2017-09-24T05:04:22.650Z,15.77
2017-09-24T05:04:48.764Z,15.77
2017-09-24T05:05:14.890Z,15.7
2017-09-24T05:05:41.010Z,15.75
2017-09-24T05:06:07.131Z,15.75
2017-09-24T05:06:33.254Z,15.77
2017-09-24T05:06:59.374Z,15.68
2017-09-24T05:07:25.498Z,15.75
2017-09-24T05:07:51.627Z,15.76
2017-09-24T05:08:17.768Z,15.76
2017-09-24T05:08:43.896Z,15.75
2017-09-24T05:09:10.014Z,15.73
2017-09-24T05:09:36.141Z,15.75
2017-09-24T05:10:02.259Z,15.7
2017-09-24T05:10:28.388Z,15.7
2017-09-24T05:10:54.513Z,15.75
2017-09-24T05:11:20.631Z,15.8
2017-09-24T05:11:46.759Z,15.75
2017-09-24T05:12:12.880Z,15.65
2017-09-24T05:12:39.006Z,15.72
2017-09-24T05:13:05.124Z,15.67
2017-09-24T05:13:31.249Z,15.67
2017-09-24T05:13:57.367Z,15.73
2017-09-24T05:14:23.495Z,15.68
2017-09-24T05:14:49.618Z,15.68
2017-09-24T05:15:15.743Z,15.67
2017-09-24T05:15:41.863Z,15.72
2017-09-24T05:16:07.988Z,15.68
2017-09-24T05:16:34.105Z,15.64
2017-09-24T05:17:00.225Z,15.67
2017-09-24T05:17:26.357Z,15.64
2017-09-24T05:17:52.475Z,15.61
2017-09-24T05:18:18.599Z,15.64
2017-09-24T05:18:44.726Z,15.62
2017-09-24T05:19:10.843Z,15.64
2017-09-24T05:19:36.967Z,15.67
2017-09-24T05:20:03.109Z,15.61
2017-09-24T05:20:29.254Z,15.64
2017-09-24T05:20:55.372Z,15.64
2017-09-24T05:21:21.492Z,15.64
2017-09-24T05:21:47.615Z,15.67
2017-09-24T05:22:13.736Z,15.64
2017-09-24T05:22:39.859Z,15.72
2017-09-24T05:23:05.987Z,15.75
2017-09-24T05:23:32.109Z,15.68
2017-09-24T05:23:58.228Z,15.64
2017-09-24T05:24:24.355Z,15.65
2017-09-24T05:24:50.470Z,15.64
2017-09-24T05:25:16.621Z,15.64
2017-09-24T05:25:42.749Z,15.62
2017-09-24T05:26:08.865Z,15.64
2017-09-24T05:26:34.985Z,15.52
2017-09-24T05:27:01.105Z,15.51
2017-09-24T05:27:27.234Z,15.54
2017-09-24T05:27:53.360Z,15.52
2017-09-24T05:28:19.496Z,15.49
2017-09-24T05:28:45.615Z,15.44
2017-09-24T05:29:11.740Z,15.57
2017-09-24T05:29:37.870Z,15.44
2017-09-24T05:30:03.989Z,15.54
2017-09-24T05:30:30.109Z,15.47
2017-09-24T05:30:56.232Z,15.51
2017-09-24T05:31:22.351Z,15.52
2017-09-24T05:31:48.482Z,15.54
2017-09-24T05:32:14.606Z,15.54
2017-09-24T05:32:40.722Z,15.49
2017-09-24T05:33:06.854Z,15.51
2017-09-24T05:33:32.968Z,15.47
2017-09-24T05:33:59.093Z,15.47
2017-09-24T05:34:25.243Z,15.46
2017-09-24T05:34:51.366Z,15.42
2017-09-24T05:35:17.521Z,15.37
2017-09-24T05:35:43.645Z,15.54
2017-09-24T05:36:09.764Z,15.52
2017-09-24T05:36:35.889Z,15.51
2017-09-24T05:37:02.007Z,15.49
2017-09-24T05:37:28.135Z,15.59
2017-09-24T05:37:54.262Z,15.58
2017-09-24T05:38:20.380Z,15.54